sensor_id;sensor_type;location;lat;lon;timestamp;P1;durP1;ratioP1;P2;durP2;ratioP2
45206;SDS011;30950;53.086;21.576;2022-12-24T00:01:19;54.92;;;30.05;;
45206;SDS011;30950;53.086;21.576;2022-12-24T00:03:47;52.83;;;30.10;;
45206;SDS011;30950;53.086;21.576;2022-12-24T00:06:16;57.45;;;30.80;;
45206;SDS011;30950;53.086;21.576;2022-12-24T00:08:49;57.33;;;30.38;;
45206;SDS011;30950;53.086;21.576;2022-12-24T00:11:17;69.45;;;32.88;;
45206;SDS011;30950;53.086;21.576;2022-12-24T00:13:45;66.90;;;33.63;;
45206;SDS011;30950;53.086;21.576;2022-12-24T00:16:13;67.28;;;35.70;;
45206;SDS011;30950;53.086;21.576;2022-12-24T00:18:40;69.90;;;34.35;;
45206;SDS011;30950;53.086;21.576;2022-12-24T00:21:13;73.18;;;36.85;;
45206;SDS011;30950;53.086;21.576;2022-12-24T00:23:41;73.80;;;36.13;;
45206;SDS011;30950;53.086;21.576;2022-12-24T00:26:09;65.70;;;36.63;;
45206;SDS011;30950;53.086;21.576;2022-12-24T00:28:37;66.05;;;34.38;;
45206;SDS011;30950;53.086;21.576;2022-12-24T00:31:08;55.72;;;31.65;;
45206;SDS011;30950;53.086;21.576;2022-12-24T00:33:37;58.63;;;30.42;;
45206;SDS011;30950;53.086;21.576;2022-12-24T00:36:06;55.47;;;31.00;;
45206;SDS011;30950;53.086;21.576;2022-12-24T00:38:34;59.80;;;30.83;;
45206;SDS011;30950;53.086;21.576;2022-12-24T00:41:02;63.28;;;32.97;;
45206;SDS011;30950;53.086;21.576;2022-12-24T00:43:31;59.28;;;32.22;;
45206;SDS011;30950;53.086;21.576;2022-12-24T00:45:59;57.60;;;30.02;;
45206;SDS011;30950;53.086;21.576;2022-12-24T00:48:26;50.05;;;28.83;;
45206;SDS011;30950;53.086;21.576;2022-12-24T00:50:53;59.15;;;30.77;;
45206;SDS011;30950;53.086;21.576;2022-12-24T00:53:21;61.13;;;31.10;;
45206;SDS011;30950;53.086;21.576;2022-12-24T00:55:48;64.80;;;32.00;;
45206;SDS011;30950;53.086;21.576;2022-12-24T00:58:15;54.35;;;29.92;;
45206;SDS011;30950;53.086;21.576;2022-12-24T01:00:43;67.15;;;32.42;;
45206;SDS011;30950;53.086;21.576;2022-12-24T01:03:10;62.08;;;30.45;;
45206;SDS011;30950;53.086;21.576;2022-12-24T01:05:38;61.85;;;31.30;;
45206;SDS011;30950;53.086;21.576;2022-12-24T01:08:05;57.58;;;30.00;;
45206;SDS011;30950;53.086;21.576;2022-12-24T01:10:32;54.15;;;27.98;;
45206;SDS011;30950;53.086;21.576;2022-12-24T01:13:00;56.03;;;30.23;;
45206;SDS011;30950;53.086;21.576;2022-12-24T01:15:28;55.03;;;28.20;;
45206;SDS011;30950;53.086;21.576;2022-12-24T01:17:55;59.92;;;29.27;;
45206;SDS011;30950;53.086;21.576;2022-12-24T01:20:24;52.13;;;28.52;;
45206;SDS011;30950;53.086;21.576;2022-12-24T01:22:57;55.38;;;29.83;;
45206;SDS011;30950;53.086;21.576;2022-12-24T01:25:24;52.85;;;28.52;;
45206;SDS011;30950;53.086;21.576;2022-12-24T01:27:51;52.22;;;29.38;;
45206;SDS011;30950;53.086;21.576;2022-12-24T01:30:19;58.28;;;30.77;;
45206;SDS011;30950;53.086;21.576;2022-12-24T01:32:46;62.83;;;30.50;;
45206;SDS011;30950;53.086;21.576;2022-12-24T01:35:13;55.75;;;29.98;;
45206;SDS011;30950;53.086;21.576;2022-12-24T01:37:41;60.67;;;30.52;;
45206;SDS011;30950;53.086;21.576;2022-12-24T01:40:16;61.05;;;32.70;;
45206;SDS011;30950;53.086;21.576;2022-12-24T01:43:02;58.90;;;30.23;;
45206;SDS011;30950;53.086;21.576;2022-12-24T01:48:39;54.75;;;28.92;;
45206;SDS011;30950;53.086;21.576;2022-12-24T01:51:35;53.92;;;28.52;;
45206;SDS011;30950;53.086;21.576;2022-12-24T01:54:09;58.53;;;28.15;;
45206;SDS011;30950;53.086;21.576;2022-12-24T01:56:43;57.78;;;30.63;;
45206;SDS011;30950;53.086;21.576;2022-12-24T01:59:14;58.05;;;29.58;;
45206;SDS011;30950;53.086;21.576;2022-12-24T02:01:45;54.28;;;28.77;;
45206;SDS011;30950;53.086;21.576;2022-12-24T02:04:22;58.88;;;29.63;;
45206;SDS011;30950;53.086;21.576;2022-12-24T02:07:03;55.45;;;27.73;;
45206;SDS011;30950;53.086;21.576;2022-12-24T02:09:32;45.90;;;26.23;;
45206;SDS011;30950;53.086;21.576;2022-12-24T02:12:01;55.78;;;28.58;;
45206;SDS011;30950;53.086;21.576;2022-12-24T02:14:31;51.55;;;26.27;;
45206;SDS011;30950;53.086;21.576;2022-12-24T02:17:12;47.28;;;26.17;;
45206;SDS011;30950;53.086;21.576;2022-12-24T02:30:58;46.88;;;25.20;;
45206;SDS011;30950;53.086;21.576;2022-12-24T02:33:34;51.90;;;26.48;;
45206;SDS011;30950;53.086;21.576;2022-12-24T02:36:23;50.00;;;24.27;;
45206;SDS011;30950;53.086;21.576;2022-12-24T02:39:04;47.03;;;25.70;;
45206;SDS011;30950;53.086;21.576;2022-12-24T02:41:41;48.58;;;24.27;;
45206;SDS011;30950;53.086;21.576;2022-12-24T02:44:33;46.40;;;25.00;;
45206;SDS011;30950;53.086;21.576;2022-12-24T02:47:22;49.08;;;25.67;;
45206;SDS011;30950;53.086;21.576;2022-12-24T02:49:52;48.15;;;26.05;;
45206;SDS011;30950;53.086;21.576;2022-12-24T02:52:33;52.15;;;26.52;;
45206;SDS011;30950;53.086;21.576;2022-12-24T02:55:07;47.45;;;24.25;;
45206;SDS011;30950;53.086;21.576;2022-12-24T03:00:06;45.70;;;23.85;;
45206;SDS011;30950;53.086;21.576;2022-12-24T03:11:08;38.40;;;19.45;;
45206;SDS011;30950;53.086;21.576;2022-12-24T03:13:37;34.38;;;18.80;;
45206;SDS011;30950;53.086;21.576;2022-12-24T03:16:06;36.10;;;20.55;;
45206;SDS011;30950;53.086;21.576;2022-12-24T03:18:41;40.60;;;20.42;;
45206;SDS011;30950;53.086;21.576;2022-12-24T03:23:51;35.72;;;19.15;;
45206;SDS011;30950;53.086;21.576;2022-12-24T03:26:19;36.08;;;19.15;;
45206;SDS011;30950;53.086;21.576;2022-12-24T03:28:47;33.45;;;18.60;;
45206;SDS011;30950;53.086;21.576;2022-12-24T03:31:15;36.05;;;19.20;;
45206;SDS011;30950;53.086;21.576;2022-12-24T03:33:44;34.13;;;18.63;;
45206;SDS011;30950;53.086;21.576;2022-12-24T03:36:12;35.00;;;19.92;;
45206;SDS011;30950;53.086;21.576;2022-12-24T03:38:40;33.10;;;17.90;;
45206;SDS011;30950;53.086;21.576;2022-12-24T03:41:07;35.17;;;17.55;;
45206;SDS011;30950;53.086;21.576;2022-12-24T03:43:35;33.33;;;17.63;;
45206;SDS011;30950;53.086;21.576;2022-12-24T03:46:03;29.75;;;17.30;;
45206;SDS011;30950;53.086;21.576;2022-12-24T03:48:33;32.50;;;16.65;;
45206;SDS011;30950;53.086;21.576;2022-12-24T03:51:02;29.92;;;15.48;;
45206;SDS011;30950;53.086;21.576;2022-12-24T03:53:29;28.95;;;16.20;;
45206;SDS011;30950;53.086;21.576;2022-12-24T03:55:57;27.27;;;14.43;;
45206;SDS011;30950;53.086;21.576;2022-12-24T03:58:24;24.90;;;13.35;;
45206;SDS011;30950;53.086;21.576;2022-12-24T04:00:52;25.80;;;13.15;;
45206;SDS011;30950;53.086;21.576;2022-12-24T04:03:19;21.85;;;12.23;;
45206;SDS011;30950;53.086;21.576;2022-12-24T04:05:47;24.75;;;13.00;;
45206;SDS011;30950;53.086;21.576;2022-12-24T04:08:24;25.40;;;11.85;;
45206;SDS011;30950;53.086;21.576;2022-12-24T04:10:52;24.77;;;13.18;;
45206;SDS011;30950;53.086;21.576;2022-12-24T04:13:19;26.13;;;13.35;;
45206;SDS011;30950;53.086;21.576;2022-12-24T04:15:59;20.67;;;12.18;;
45206;SDS011;30950;53.086;21.576;2022-12-24T04:18:28;22.98;;;12.95;;
45206;SDS011;30950;53.086;21.576;2022-12-24T04:20:56;24.63;;;12.52;;
45206;SDS011;30950;53.086;21.576;2022-12-24T04:23:23;24.13;;;12.48;;
45206;SDS011;30950;53.086;21.576;2022-12-24T04:25:50;19.77;;;10.90;;
45206;SDS011;30950;53.086;21.576;2022-12-24T04:28:18;21.42;;;11.85;;
45206;SDS011;30950;53.086;21.576;2022-12-24T04:30:45;22.02;;;12.65;;
45206;SDS011;30950;53.086;21.576;2022-12-24T04:33:13;24.65;;;12.77;;
45206;SDS011;30950;53.086;21.576;2022-12-24T04:35:40;24.48;;;12.45;;
45206;SDS011;30950;53.086;21.576;2022-12-24T04:38:08;22.73;;;12.13;;
45206;SDS011;30950;53.086;21.576;2022-12-24T04:40:36;23.20;;;13.48;;
45206;SDS011;30950;53.086;21.576;2022-12-24T04:43:03;24.95;;;11.80;;
45206;SDS011;30950;53.086;21.576;2022-12-24T04:45:30;17.40;;;8.95;;
45206;SDS011;30950;53.086;21.576;2022-12-24T04:47:58;19.50;;;10.45;;
45206;SDS011;30950;53.086;21.576;2022-12-24T04:50:26;18.67;;;10.40;;
45206;SDS011;30950;53.086;21.576;2022-12-24T04:52:53;24.38;;;13.40;;
45206;SDS011;30950;53.086;21.576;2022-12-24T04:55:20;23.73;;;14.90;;
45206;SDS011;30950;53.086;21.576;2022-12-24T04:57:48;26.98;;;17.05;;
45206;SDS011;30950;53.086;21.576;2022-12-24T05:00:19;25.02;;;15.38;;
45206;SDS011;30950;53.086;21.576;2022-12-24T05:02:46;25.08;;;14.10;;
45206;SDS011;30950;53.086;21.576;2022-12-24T05:05:14;23.70;;;12.65;;
45206;SDS011;30950;53.086;21.576;2022-12-24T05:07:41;21.58;;;13.32;;
45206;SDS011;30950;53.086;21.576;2022-12-24T05:10:08;21.23;;;11.60;;
45206;SDS011;30950;53.086;21.576;2022-12-24T05:12:36;24.02;;;13.82;;
45206;SDS011;30950;53.086;21.576;2022-12-24T05:15:04;21.92;;;13.18;;
45206;SDS011;30950;53.086;21.576;2022-12-24T05:17:31;23.63;;;12.63;;
45206;SDS011;30950;53.086;21.576;2022-12-24T05:19:59;19.42;;;10.60;;
45206;SDS011;30950;53.086;21.576;2022-12-24T05:22:26;20.90;;;11.38;;
45206;SDS011;30950;53.086;21.576;2022-12-24T05:25:12;24.52;;;12.85;;
45206;SDS011;30950;53.086;21.576;2022-12-24T05:27:58;23.88;;;14.20;;
45206;SDS011;30950;53.086;21.576;2022-12-24T05:30:25;25.08;;;13.55;;
45206;SDS011;30950;53.086;21.576;2022-12-24T05:32:53;22.85;;;12.75;;
45206;SDS011;30950;53.086;21.576;2022-12-24T05:35:20;28.92;;;15.57;;
45206;SDS011;30950;53.086;21.576;2022-12-24T05:37:47;31.13;;;16.05;;
45206;SDS011;30950;53.086;21.576;2022-12-24T05:40:15;27.67;;;15.25;;
45206;SDS011;30950;53.086;21.576;2022-12-24T05:42:42;35.70;;;20.05;;
45206;SDS011;30950;53.086;21.576;2022-12-24T05:45:10;24.92;;;13.77;;
45206;SDS011;30950;53.086;21.576;2022-12-24T05:47:37;27.58;;;14.45;;
45206;SDS011;30950;53.086;21.576;2022-12-24T05:50:10;25.40;;;13.48;;
45206;SDS011;30950;53.086;21.576;2022-12-24T05:52:38;29.70;;;13.82;;
45206;SDS011;30950;53.086;21.576;2022-12-24T05:55:06;31.83;;;13.65;;
45206;SDS011;30950;53.086;21.576;2022-12-24T05:57:34;26.80;;;14.00;;
45206;SDS011;30950;53.086;21.576;2022-12-24T06:00:02;28.70;;;14.77;;
45206;SDS011;30950;53.086;21.576;2022-12-24T06:02:37;26.83;;;13.98;;
45206;SDS011;30950;53.086;21.576;2022-12-24T06:05:05;27.92;;;14.68;;
45206;SDS011;30950;53.086;21.576;2022-12-24T06:07:33;23.50;;;12.52;;
45206;SDS011;30950;53.086;21.576;2022-12-24T06:10:00;30.67;;;15.93;;
45206;SDS011;30950;53.086;21.576;2022-12-24T06:12:27;28.42;;;16.63;;
45206;SDS011;30950;53.086;21.576;2022-12-24T06:14:55;29.13;;;14.30;;
45206;SDS011;30950;53.086;21.576;2022-12-24T06:17:22;27.35;;;14.70;;
45206;SDS011;30950;53.086;21.576;2022-12-24T06:19:50;27.30;;;12.63;;
45206;SDS011;30950;53.086;21.576;2022-12-24T06:22:17;33.17;;;17.35;;
45206;SDS011;30950;53.086;21.576;2022-12-24T06:24:44;31.13;;;17.17;;
45206;SDS011;30950;53.086;21.576;2022-12-24T06:27:12;34.50;;;18.38;;
45206;SDS011;30950;53.086;21.576;2022-12-24T06:29:39;32.58;;;17.52;;
45206;SDS011;30950;53.086;21.576;2022-12-24T06:32:06;37.53;;;18.88;;
45206;SDS011;30950;53.086;21.576;2022-12-24T06:34:34;39.63;;;21.08;;
45206;SDS011;30950;53.086;21.576;2022-12-24T06:37:01;37.67;;;20.80;;
45206;SDS011;30950;53.086;21.576;2022-12-24T06:39:29;31.25;;;17.17;;
45206;SDS011;30950;53.086;21.576;2022-12-24T06:41:56;30.92;;;17.58;;
45206;SDS011;30950;53.086;21.576;2022-12-24T06:44:23;31.48;;;18.88;;
45206;SDS011;30950;53.086;21.576;2022-12-24T06:46:52;32.05;;;18.75;;
45206;SDS011;30950;53.086;21.576;2022-12-24T06:49:19;29.88;;;17.42;;
45206;SDS011;30950;53.086;21.576;2022-12-24T06:51:46;32.85;;;16.48;;
45206;SDS011;30950;53.086;21.576;2022-12-24T06:54:14;28.60;;;15.80;;
45206;SDS011;30950;53.086;21.576;2022-12-24T06:56:41;25.33;;;14.82;;
45206;SDS011;30950;53.086;21.576;2022-12-24T06:59:08;26.33;;;14.80;;
45206;SDS011;30950;53.086;21.576;2022-12-24T07:01:36;30.02;;;15.60;;
45206;SDS011;30950;53.086;21.576;2022-12-24T07:04:03;25.40;;;15.15;;
45206;SDS011;30950;53.086;21.576;2022-12-24T07:06:31;24.52;;;14.20;;
45206;SDS011;30950;53.086;21.576;2022-12-24T07:08:58;30.55;;;16.02;;
45206;SDS011;30950;53.086;21.576;2022-12-24T07:11:25;28.92;;;16.23;;
45206;SDS011;30950;53.086;21.576;2022-12-24T07:13:53;33.03;;;16.00;;
45206;SDS011;30950;53.086;21.576;2022-12-24T07:16:20;29.17;;;15.18;;
45206;SDS011;30950;53.086;21.576;2022-12-24T07:18:48;30.33;;;15.50;;
45206;SDS011;30950;53.086;21.576;2022-12-24T07:21:15;32.13;;;17.08;;
45206;SDS011;30950;53.086;21.576;2022-12-24T07:23:42;28.75;;;16.17;;
45206;SDS011;30950;53.086;21.576;2022-12-24T07:26:09;36.95;;;18.40;;
45206;SDS011;30950;53.086;21.576;2022-12-24T07:28:37;34.08;;;20.60;;
45206;SDS011;30950;53.086;21.576;2022-12-24T07:31:04;37.67;;;19.48;;
45206;SDS011;30950;53.086;21.576;2022-12-24T07:33:32;38.30;;;21.20;;
45206;SDS011;30950;53.086;21.576;2022-12-24T07:36:06;36.78;;;19.70;;
45206;SDS011;30950;53.086;21.576;2022-12-24T07:38:36;46.83;;;25.08;;
45206;SDS011;30950;53.086;21.576;2022-12-24T07:41:03;32.58;;;20.83;;
45206;SDS011;30950;53.086;21.576;2022-12-24T07:43:31;36.63;;;19.40;;
45206;SDS011;30950;53.086;21.576;2022-12-24T07:45:59;34.90;;;16.50;;
45206;SDS011;30950;53.086;21.576;2022-12-24T07:48:27;33.10;;;17.30;;
45206;SDS011;30950;53.086;21.576;2022-12-24T07:50:55;29.75;;;14.85;;
45206;SDS011;30950;53.086;21.576;2022-12-24T07:53:24;26.00;;;15.15;;
45206;SDS011;30950;53.086;21.576;2022-12-24T07:55:52;21.52;;;13.35;;
45206;SDS011;30950;53.086;21.576;2022-12-24T07:58:21;22.48;;;14.07;;
45206;SDS011;30950;53.086;21.576;2022-12-24T08:00:53;25.63;;;16.27;;
45206;SDS011;30950;53.086;21.576;2022-12-24T08:03:22;23.70;;;14.48;;
45206;SDS011;30950;53.086;21.576;2022-12-24T08:05:50;26.50;;;16.15;;
45206;SDS011;30950;53.086;21.576;2022-12-24T08:08:20;32.38;;;18.58;;
45206;SDS011;30950;53.086;21.576;2022-12-24T08:10:47;32.17;;;18.95;;
45206;SDS011;30950;53.086;21.576;2022-12-24T08:13:15;31.42;;;19.98;;
45206;SDS011;30950;53.086;21.576;2022-12-24T08:15:42;24.60;;;16.20;;
45206;SDS011;30950;53.086;21.576;2022-12-24T08:18:11;25.98;;;16.70;;
45206;SDS011;30950;53.086;21.576;2022-12-24T08:20:38;26.63;;;16.55;;
45206;SDS011;30950;53.086;21.576;2022-12-24T08:23:08;27.73;;;16.80;;
45206;SDS011;30950;53.086;21.576;2022-12-24T08:25:35;30.70;;;17.30;;
45206;SDS011;30950;53.086;21.576;2022-12-24T08:28:04;25.83;;;16.13;;
45206;SDS011;30950;53.086;21.576;2022-12-24T08:30:31;29.33;;;15.18;;
45206;SDS011;30950;53.086;21.576;2022-12-24T08:32:59;27.85;;;15.32;;
45206;SDS011;30950;53.086;21.576;2022-12-24T08:35:27;31.48;;;17.58;;
45206;SDS011;30950;53.086;21.576;2022-12-24T08:37:55;47.45;;;29.33;;
45206;SDS011;30950;53.086;21.576;2022-12-24T08:40:22;47.33;;;28.38;;
45206;SDS011;30950;53.086;21.576;2022-12-24T08:42:50;47.20;;;29.42;;
45206;SDS011;30950;53.086;21.576;2022-12-24T08:45:18;54.80;;;35.65;;
45206;SDS011;30950;53.086;21.576;2022-12-24T08:47:45;53.72;;;31.33;;
45206;SDS011;30950;53.086;21.576;2022-12-24T08:50:19;44.35;;;25.30;;
45206;SDS011;30950;53.086;21.576;2022-12-24T08:52:47;67.50;;;33.10;;
45206;SDS011;30950;53.086;21.576;2022-12-24T08:55:14;74.93;;;35.30;;
45206;SDS011;30950;53.086;21.576;2022-12-24T08:57:42;87.13;;;46.35;;
45206;SDS011;30950;53.086;21.576;2022-12-24T09:00:10;91.43;;;42.65;;
45206;SDS011;30950;53.086;21.576;2022-12-24T09:02:38;186.57;;;82.20;;
45206;SDS011;30950;53.086;21.576;2022-12-24T09:05:05;149.18;;;66.40;;
45206;SDS011;30950;53.086;21.576;2022-12-24T09:07:34;150.70;;;67.43;;
45206;SDS011;30950;53.086;21.576;2022-12-24T09:10:01;71.53;;;38.15;;
45206;SDS011;30950;53.086;21.576;2022-12-24T09:12:30;62.80;;;39.53;;
45206;SDS011;30950;53.086;21.576;2022-12-24T09:14:57;48.65;;;31.05;;
45206;SDS011;30950;53.086;21.576;2022-12-24T09:17:30;48.80;;;26.95;;
45206;SDS011;30950;53.086;21.576;2022-12-24T09:19:57;39.70;;;24.05;;
45206;SDS011;30950;53.086;21.576;2022-12-24T09:22:24;41.33;;;25.83;;
45206;SDS011;30950;53.086;21.576;2022-12-24T09:24:54;37.25;;;23.05;;
45206;SDS011;30950;53.086;21.576;2022-12-24T09:27:22;39.17;;;22.70;;
45206;SDS011;30950;53.086;21.576;2022-12-24T09:29:49;38.15;;;22.25;;
45206;SDS011;30950;53.086;21.576;2022-12-24T09:32:17;35.88;;;22.30;;
45206;SDS011;30950;53.086;21.576;2022-12-24T09:34:44;36.92;;;19.88;;
45206;SDS011;30950;53.086;21.576;2022-12-24T09:37:12;33.35;;;21.15;;
45206;SDS011;30950;53.086;21.576;2022-12-24T09:39:39;28.10;;;16.85;;
45206;SDS011;30950;53.086;21.576;2022-12-24T09:44:57;21.20;;;14.27;;
45206;SDS011;30950;53.086;21.576;2022-12-24T09:47:37;20.88;;;13.73;;
45206;SDS011;30950;53.086;21.576;2022-12-24T09:56:14;18.70;;;11.85;;
45206;SDS011;30950;53.086;21.576;2022-12-24T09:58:48;18.88;;;11.50;;
45206;SDS011;30950;53.086;21.576;2022-12-24T10:01:23;20.42;;;12.63;;
45206;SDS011;30950;53.086;21.576;2022-12-24T10:03:51;22.65;;;12.95;;
45206;SDS011;30950;53.086;21.576;2022-12-24T10:06:23;28.75;;;14.45;;
45206;SDS011;30950;53.086;21.576;2022-12-24T10:22:55;20.70;;;12.53;;
45206;SDS011;30950;53.086;21.576;2022-12-24T10:25:35;21.88;;;17.05;;
45206;SDS011;30950;53.086;21.576;2022-12-24T10:28:17;26.55;;;15.38;;
45206;SDS011;30950;53.086;21.576;2022-12-24T10:30:48;33.85;;;24.73;;
45206;SDS011;30950;53.086;21.576;2022-12-24T10:33:18;37.17;;;25.55;;
45206;SDS011;30950;53.086;21.576;2022-12-24T10:35:52;31.85;;;18.75;;
45206;SDS011;30950;53.086;21.576;2022-12-24T10:38:21;28.30;;;19.02;;
45206;SDS011;30950;53.086;21.576;2022-12-24T10:40:49;27.33;;;19.15;;
45206;SDS011;30950;53.086;21.576;2022-12-24T10:43:21;29.40;;;17.67;;
45206;SDS011;30950;53.086;21.576;2022-12-24T10:46:37;26.05;;;16.80;;
45206;SDS011;30950;53.086;21.576;2022-12-24T10:48:50;26.77;;;15.17;;
45206;SDS011;30950;53.086;21.576;2022-12-24T10:51:24;20.02;;;15.05;;
45206;SDS011;30950;53.086;21.576;2022-12-24T10:53:56;19.42;;;14.73;;
45206;SDS011;30950;53.086;21.576;2022-12-24T10:56:37;18.63;;;13.60;;
45206;SDS011;30950;53.086;21.576;2022-12-24T10:59:21;17.23;;;11.27;;
45206;SDS011;30950;53.086;21.576;2022-12-24T11:01:53;18.77;;;12.30;;
45206;SDS011;30950;53.086;21.576;2022-12-24T11:04:29;15.52;;;10.73;;
45206;SDS011;30950;53.086;21.576;2022-12-24T11:07:05;16.35;;;9.93;;
45206;SDS011;30950;53.086;21.576;2022-12-24T11:09:43;13.50;;;10.50;;
45206;SDS011;30950;53.086;21.576;2022-12-24T11:12:22;19.42;;;12.73;;
45206;SDS011;30950;53.086;21.576;2022-12-24T11:20:24;18.13;;;11.88;;
45206;SDS011;30950;53.086;21.576;2022-12-24T11:22:54;17.73;;;12.18;;
45206;SDS011;30950;53.086;21.576;2022-12-24T11:25:26;20.40;;;13.27;;
45206;SDS011;30950;53.086;21.576;2022-12-24T11:28:11;24.42;;;14.63;;
45206;SDS011;30950;53.086;21.576;2022-12-24T11:33:25;25.50;;;15.63;;
45206;SDS011;30950;53.086;21.576;2022-12-24T11:35:55;23.33;;;15.45;;
45206;SDS011;30950;53.086;21.576;2022-12-24T11:38:28;23.88;;;16.05;;
45206;SDS011;30950;53.086;21.576;2022-12-24T11:41:07;26.05;;;15.90;;
45206;SDS011;30950;53.086;21.576;2022-12-24T11:43:44;25.80;;;15.05;;
45206;SDS011;30950;53.086;21.576;2022-12-24T11:48:46;26.50;;;15.55;;
45206;SDS011;30950;53.086;21.576;2022-12-24T11:51:24;23.77;;;15.45;;
45206;SDS011;30950;53.086;21.576;2022-12-24T11:54:01;27.65;;;15.18;;
45206;SDS011;30950;53.086;21.576;2022-12-24T11:56:50;26.33;;;15.65;;
45206;SDS011;30950;53.086;21.576;2022-12-24T11:59:28;39.35;;;20.45;;
45206;SDS011;30950;53.086;21.576;2022-12-24T12:02:10;32.15;;;18.27;;
45206;SDS011;30950;53.086;21.576;2022-12-24T12:04:44;34.40;;;20.13;;
45206;SDS011;30950;53.086;21.576;2022-12-24T12:07:26;30.08;;;17.20;;
45206;SDS011;30950;53.086;21.576;2022-12-24T12:12:59;22.13;;;13.95;;
45206;SDS011;30950;53.086;21.576;2022-12-24T12:15:28;23.58;;;15.73;;
45206;SDS011;30950;53.086;21.576;2022-12-24T12:20:44;21.83;;;13.45;;
45206;SDS011;30950;53.086;21.576;2022-12-24T12:31:35;21.88;;;13.13;;
45206;SDS011;30950;53.086;21.576;2022-12-24T12:36:50;32.28;;;16.85;;
45206;SDS011;30950;53.086;21.576;2022-12-24T12:39:23;33.00;;;18.77;;
45206;SDS011;30950;53.086;21.576;2022-12-24T12:47:25;32.13;;;17.23;;
45206;SDS011;30950;53.086;21.576;2022-12-24T12:50:21;35.03;;;18.45;;
45206;SDS011;30950;53.086;21.576;2022-12-24T12:56:09;26.20;;;16.60;;
45206;SDS011;30950;53.086;21.576;2022-12-24T13:01:39;26.27;;;15.68;;
45206;SDS011;30950;53.086;21.576;2022-12-24T13:07:18;31.02;;;18.90;;
45206;SDS011;30950;53.086;21.576;2022-12-24T13:20:50;37.33;;;19.73;;
45206;SDS011;30950;53.086;21.576;2022-12-24T13:23:19;35.47;;;21.33;;
45206;SDS011;30950;53.086;21.576;2022-12-24T13:25:52;29.35;;;17.17;;
45206;SDS011;30950;53.086;21.576;2022-12-24T13:30:50;31.38;;;17.98;;
45206;SDS011;30950;53.086;21.576;2022-12-24T13:38:33;44.25;;;27.20;;
45206;SDS011;30950;53.086;21.576;2022-12-24T13:52:05;36.15;;;18.73;;
45206;SDS011;30950;53.086;21.576;2022-12-24T13:54:33;39.30;;;20.85;;
45206;SDS011;30950;53.086;21.576;2022-12-24T13:57:14;26.85;;;16.63;;
45206;SDS011;30950;53.086;21.576;2022-12-24T13:59:58;34.60;;;20.73;;
45206;SDS011;30950;53.086;21.576;2022-12-24T14:02:52;34.40;;;20.05;;
45206;SDS011;30950;53.086;21.576;2022-12-24T14:08:57;44.50;;;22.55;;
45206;SDS011;30950;53.086;21.576;2022-12-24T14:11:05;33.75;;;18.67;;
45206;SDS011;30950;53.086;21.576;2022-12-24T14:16:11;21.42;;;13.98;;
45206;SDS011;30950;53.086;21.576;2022-12-24T14:18:47;22.23;;;12.63;;
45206;SDS011;30950;53.086;21.576;2022-12-24T14:21:36;23.88;;;14.07;;
45206;SDS011;30950;53.086;21.576;2022-12-24T14:24:13;19.40;;;12.02;;
45206;SDS011;30950;53.086;21.576;2022-12-24T14:26:48;15.73;;;10.70;;
45206;SDS011;30950;53.086;21.576;2022-12-24T14:29:36;17.77;;;10.68;;
45206;SDS011;30950;53.086;21.576;2022-12-24T14:32:15;21.35;;;12.40;;
45206;SDS011;30950;53.086;21.576;2022-12-24T14:34:43;37.53;;;20.00;;
45206;SDS011;30950;53.086;21.576;2022-12-24T14:37:11;27.42;;;15.45;;
45206;SDS011;30950;53.086;21.576;2022-12-24T14:39:43;26.50;;;15.50;;
45206;SDS011;30950;53.086;21.576;2022-12-24T14:51:09;46.42;;;24.83;;
45206;SDS011;30950;53.086;21.576;2022-12-24T14:54:01;38.92;;;22.83;;
45206;SDS011;30950;53.086;21.576;2022-12-24T14:56:34;40.42;;;22.73;;
45206;SDS011;30950;53.086;21.576;2022-12-24T14:59:12;42.83;;;23.65;;
45206;SDS011;30950;53.086;21.576;2022-12-24T15:01:41;32.03;;;21.25;;
45206;SDS011;30950;53.086;21.576;2022-12-24T15:06:45;49.58;;;28.35;;
45206;SDS011;30950;53.086;21.576;2022-12-24T15:09:22;64.95;;;31.70;;
45206;SDS011;30950;53.086;21.576;2022-12-24T15:11:56;47.83;;;26.25;;
45206;SDS011;30950;53.086;21.576;2022-12-24T15:14:26;51.13;;;27.17;;
45206;SDS011;30950;53.086;21.576;2022-12-24T15:16:57;45.40;;;27.65;;
45206;SDS011;30950;53.086;21.576;2022-12-24T15:21:57;40.72;;;23.83;;
45206;SDS011;30950;53.086;21.576;2022-12-24T15:24:34;39.25;;;23.63;;
45206;SDS011;30950;53.086;21.576;2022-12-24T15:27:19;35.95;;;23.05;;
45206;SDS011;30950;53.086;21.576;2022-12-24T15:29:50;35.05;;;21.35;;
45206;SDS011;30950;53.086;21.576;2022-12-24T15:32:20;36.33;;;23.38;;
45206;SDS011;30950;53.086;21.576;2022-12-24T15:34:49;37.78;;;22.85;;
45206;SDS011;30950;53.086;21.576;2022-12-24T15:37:19;39.17;;;23.85;;
45206;SDS011;30950;53.086;21.576;2022-12-24T15:39:54;37.00;;;21.65;;
45206;SDS011;30950;53.086;21.576;2022-12-24T15:42:22;34.95;;;21.35;;
45206;SDS011;30950;53.086;21.576;2022-12-24T15:52:59;30.35;;;17.55;;
45206;SDS011;30950;53.086;21.576;2022-12-24T15:56:10;34.35;;;19.17;;
45206;SDS011;30950;53.086;21.576;2022-12-24T15:58:53;32.63;;;19.58;;
45206;SDS011;30950;53.086;21.576;2022-12-24T16:01:49;34.08;;;19.95;;
45206;SDS011;30950;53.086;21.576;2022-12-24T16:04:21;33.03;;;20.15;;
45206;SDS011;30950;53.086;21.576;2022-12-24T16:06:56;37.42;;;21.05;;
45206;SDS011;30950;53.086;21.576;2022-12-24T16:12:01;25.85;;;15.65;;
45206;SDS011;30950;53.086;21.576;2022-12-24T16:14:30;33.00;;;19.55;;
45206;SDS011;30950;53.086;21.576;2022-12-24T16:16:58;29.80;;;16.95;;
45206;SDS011;30950;53.086;21.576;2022-12-24T16:19:30;26.85;;;16.65;;
45206;SDS011;30950;53.086;21.576;2022-12-24T16:22:05;19.48;;;12.40;;
45206;SDS011;30950;53.086;21.576;2022-12-24T16:24:52;32.63;;;16.92;;
45206;SDS011;30950;53.086;21.576;2022-12-24T16:27:21;23.35;;;14.07;;
45206;SDS011;30950;53.086;21.576;2022-12-24T16:29:48;30.92;;;15.70;;
45206;SDS011;30950;53.086;21.576;2022-12-24T16:34:55;27.92;;;16.02;;
45206;SDS011;30950;53.086;21.576;2022-12-24T16:37:22;38.60;;;22.58;;
45206;SDS011;30950;53.086;21.576;2022-12-24T16:39:50;31.92;;;17.48;;
45206;SDS011;30950;53.086;21.576;2022-12-24T16:42:18;30.75;;;17.67;;
45206;SDS011;30950;53.086;21.576;2022-12-24T16:45:04;31.73;;;18.65;;
45206;SDS011;30950;53.086;21.576;2022-12-24T16:47:33;35.70;;;19.98;;
45206;SDS011;30950;53.086;21.576;2022-12-24T16:50:15;33.25;;;20.42;;
45206;SDS011;30950;53.086;21.576;2022-12-24T16:52:43;33.00;;;20.67;;
45206;SDS011;30950;53.086;21.576;2022-12-24T16:55:13;27.90;;;19.05;;
45206;SDS011;30950;53.086;21.576;2022-12-24T16:57:42;31.05;;;19.88;;
45206;SDS011;30950;53.086;21.576;2022-12-24T17:00:19;40.22;;;26.73;;
45206;SDS011;30950;53.086;21.576;2022-12-24T17:02:48;56.30;;;32.00;;
45206;SDS011;30950;53.086;21.576;2022-12-24T17:05:17;39.35;;;24.58;;
45206;SDS011;30950;53.086;21.576;2022-12-24T17:07:44;35.03;;;21.60;;